createdAt,value
2019-06-20T00:00:10.028Z,3.15
2019-06-20T00:02:39.546Z,3.10
2019-06-20T00:05:09.107Z,3.30
2019-06-20T00:07:38.569Z,2.90
2019-06-20T00:10:08.220Z,3.02
2019-06-20T00:12:37.683Z,2.60
2019-06-20T00:15:07.350Z,2.90
2019-06-20T00:17:36.911Z,2.83
2019-06-20T00:20:06.468Z,3.50
2019-06-20T00:22:35.944Z,2.72
2019-06-20T00:25:06.411Z,2.65
2019-06-20T00:27:35.902Z,3.22
2019-06-20T00:30:06.423Z,2.83
2019-06-20T00:32:36.050Z,2.90
2019-06-20T00:35:06.910Z,2.58
2019-06-20T00:37:36.374Z,3.03
2019-06-20T00:40:07.470Z,2.60
2019-06-20T00:42:36.964Z,2.70
2019-06-20T00:45:07.083Z,3.00
2019-06-20T00:47:36.893Z,2.87
2019-06-20T00:50:06.717Z,2.67
2019-06-20T00:52:36.288Z,2.70
2019-06-20T00:55:07.149Z,3.10
2019-06-20T00:57:37.029Z,2.83
2019-06-20T01:00:08.224Z,2.87
2019-06-20T01:02:37.744Z,3.10
2019-06-20T01:05:07.391Z,2.87
2019-06-20T01:07:36.932Z,3.25
2019-06-20T01:10:07.660Z,3.33
2019-06-20T01:12:37.290Z,3.20
2019-06-20T01:15:08.863Z,3.30
2019-06-20T01:17:38.341Z,3.08
2019-06-20T01:20:09.062Z,3.20
2019-06-20T01:22:38.576Z,7.30
2019-06-20T01:25:08.506Z,3.40
2019-06-20T01:27:38.180Z,3.08
2019-06-20T01:30:08.953Z,3.05
2019-06-20T01:32:38.506Z,3.12
2019-06-20T01:35:09.009Z,3.85
2019-06-20T01:37:38.503Z,5.10
2019-06-20T01:40:09.002Z,3.60
2019-06-20T01:42:38.506Z,3.10
2019-06-20T01:45:08.554Z,3.45
2019-06-20T01:47:38.019Z,3.22
2019-06-20T01:50:08.429Z,3.22
2019-06-20T01:52:37.934Z,3.65
2019-06-20T01:55:07.535Z,3.98
2019-06-20T01:57:37.107Z,5.12
2019-06-20T02:00:09.329Z,3.77
2019-06-20T02:02:39.755Z,3.70
2019-06-20T02:05:09.287Z,4.10
2019-06-20T02:07:38.747Z,3.85
2019-06-20T02:10:08.398Z,4.33
2019-06-20T02:12:37.866Z,4.20
2019-06-20T02:15:07.512Z,4.80
2019-06-20T02:17:36.982Z,3.85
2019-06-20T02:20:07.778Z,3.87
2019-06-20T02:22:37.281Z,6.53
2019-06-20T02:25:07.833Z,7.22
2019-06-20T02:27:37.306Z,4.12
2019-06-20T02:30:07.012Z,3.58
2019-06-20T02:32:36.508Z,3.60
2019-06-20T02:35:07.273Z,3.42
2019-06-20T02:37:36.889Z,3.87
2019-06-20T02:40:07.025Z,3.50
2019-06-20T02:42:36.541Z,5.72
2019-06-20T02:45:06.540Z,4.10
2019-06-20T02:47:36.133Z,3.80
2019-06-20T02:50:06.221Z,4.17
2019-06-20T02:52:35.894Z,4.33
2019-06-20T02:55:05.629Z,11.03
2019-06-20T02:57:35.095Z,13.13
2019-06-20T03:00:06.992Z,9.55
2019-06-20T03:02:36.525Z,5.35
2019-06-20T03:05:08.538Z,5.58
2019-06-20T03:07:38.115Z,7.10
2019-06-20T03:10:08.143Z,6.00
2019-06-20T03:12:37.779Z,3.70
2019-06-20T03:15:07.351Z,3.95
2019-06-20T03:17:36.888Z,5.37
2019-06-20T03:20:08.313Z,3.80
2019-06-20T03:22:37.804Z,6.50
2019-06-20T03:25:07.521Z,6.10
2019-06-20T03:27:37.026Z,4.70
2019-06-20T03:30:07.172Z,4.37
2019-06-20T03:32:36.657Z,6.50
2019-06-20T03:35:06.273Z,3.98
2019-06-20T03:37:36.236Z,3.70
2019-06-20T03:40:06.409Z,3.67
2019-06-20T03:42:35.901Z,7.75
2019-06-20T03:45:06.368Z,6.87
2019-06-20T03:47:36.079Z,3.87
2019-06-20T03:50:07.110Z,3.55
2019-06-20T03:52:36.600Z,4.67
2019-06-20T03:55:06.374Z,5.60
2019-06-20T03:57:35.913Z,4.72
2019-06-20T04:00:07.615Z,5.62
2019-06-20T04:02:37.194Z,3.65
2019-06-20T04:05:07.051Z,3.62
2019-06-20T04:07:36.517Z,4.10
2019-06-20T04:10:06.838Z,3.67
2019-06-20T04:12:36.344Z,3.77
2019-06-20T04:15:18.516Z,5.28
2019-06-20T04:17:38.130Z,3.87
2019-06-20T04:20:07.952Z,3.75
2019-06-20T04:22:37.529Z,5.62
2019-06-20T04:25:07.821Z,4.58
2019-06-20T04:27:37.331Z,3.80
2019-06-20T04:30:07.607Z,3.75
2019-06-20T04:32:37.098Z,5.45
2019-06-20T04:35:06.686Z,4.37
2019-06-20T04:37:36.183Z,4.33
2019-06-20T04:40:06.900Z,4.60
2019-06-20T04:42:36.636Z,5.65
2019-06-20T04:45:09.037Z,6.55
2019-06-20T04:47:38.512Z,5.25
2019-06-20T04:50:07.989Z,7.25
2019-06-20T04:52:37.529Z,6.07
2019-06-20T04:55:07.064Z,3.87
2019-06-20T04:57:36.523Z,5.67
2019-06-20T05:00:07.462Z,4.47
2019-06-20T05:02:36.918Z,5.05
2019-06-20T05:05:08.440Z,4.75
2019-06-20T05:07:38.042Z,4.20
2019-06-20T05:10:07.755Z,4.40
2019-06-20T05:12:37.245Z,4.17
2019-06-20T05:15:06.944Z,4.70
2019-06-20T05:17:36.411Z,6.33
2019-06-20T05:20:06.604Z,4.47
2019-06-20T05:22:36.090Z,3.67
2019-06-20T05:25:06.022Z,4.85
2019-06-20T05:27:35.551Z,3.77
2019-06-20T05:30:08.298Z,4.12
2019-06-20T05:32:37.782Z,3.77
2019-06-20T05:35:07.731Z,3.90
2019-06-20T05:37:37.258Z,4.57
2019-06-20T05:40:07.959Z,3.70
2019-06-20T05:42:37.437Z,3.72
2019-06-20T05:45:07.709Z,4.30
2019-06-20T05:47:37.216Z,4.83
2019-06-20T05:50:09.347Z,6.33
2019-06-20T05:52:38.833Z,4.87
2019-06-20T05:55:08.589Z,5.03
2019-06-20T05:57:38.083Z,4.65
2019-06-20T06:00:08.616Z,4.58
2019-06-20T06:02:38.207Z,3.50
2019-06-20T06:05:07.758Z,3.20
2019-06-20T06:07:37.308Z,5.03
2019-06-20T06:10:08.203Z,3.83
2019-06-20T06:12:37.731Z,3.45
2019-06-20T06:15:08.660Z,6.67
2019-06-20T06:17:38.704Z,2.60
2019-06-20T06:20:09.900Z,3.62
2019-06-20T06:22:39.362Z,2.90
2019-06-20T06:25:09.502Z,4.53
2019-06-20T06:27:39.059Z,3.08
2019-06-20T06:30:10.153Z,2.50
2019-06-20T06:32:40.763Z,3.65
2019-06-20T06:35:10.672Z,3.07
2019-06-20T06:37:40.683Z,2.20
2019-06-20T06:40:11.585Z,2.40
2019-06-20T06:42:41.074Z,5.80
2019-06-20T06:45:11.820Z,5.87
2019-06-20T06:47:41.327Z,5.20
2019-06-20T06:50:12.622Z,5.22
2019-06-20T06:52:42.107Z,6.05
2019-06-20T06:55:12.315Z,5.33
2019-06-20T06:57:41.871Z,6.42
2019-06-20T07:00:13.412Z,5.22
2019-06-20T07:02:42.915Z,5.37
2019-06-20T07:05:13.364Z,4.72
2019-06-20T07:07:42.825Z,5.17
2019-06-20T07:10:13.730Z,5.17
2019-06-20T07:12:43.241Z,8.03
2019-06-20T07:15:14.296Z,5.37
2019-06-20T07:17:43.787Z,4.72
2019-06-20T07:20:15.265Z,4.87
2019-06-20T07:22:44.524Z,4.70
2019-06-20T07:25:15.688Z,6.17
2019-06-20T07:27:45.193Z,5.47
2019-06-20T07:30:16.468Z,5.87
2019-06-20T07:32:46.097Z,6.40
2019-06-20T07:35:15.715Z,6.65
2019-06-20T07:37:45.233Z,6.17
2019-06-20T07:40:15.197Z,6.60
2019-06-20T07:42:44.647Z,4.97
2019-06-20T07:45:14.919Z,5.00
2019-06-20T07:47:44.408Z,7.40
2019-06-20T07:50:14.313Z,4.47
2019-06-20T07:52:51.830Z,4.60
2019-06-20T07:55:15.073Z,3.97
2019-06-20T07:57:44.592Z,4.67
2019-06-20T08:00:15.446Z,3.95
2019-06-20T08:02:44.914Z,5.00
2019-06-20T08:05:14.824Z,3.50
2019-06-20T08:07:44.296Z,4.50
2019-06-20T08:10:15.328Z,3.80
2019-06-20T08:12:44.870Z,4.47
2019-06-20T08:15:16.107Z,4.00
2019-06-20T08:17:45.652Z,4.97
2019-06-20T08:20:15.674Z,4.12
2019-06-20T08:22:45.192Z,5.15
2019-06-20T08:25:16.423Z,5.62
2019-06-20T08:27:47.626Z,4.20
2019-06-20T08:30:18.466Z,4.60
2019-06-20T08:32:47.991Z,5.53
2019-06-20T08:35:19.042Z,4.50
2019-06-20T08:37:48.683Z,5.03
2019-06-20T08:40:18.650Z,5.77
2019-06-20T08:42:48.214Z,5.92
2019-06-20T08:45:18.104Z,5.97
2019-06-20T08:47:47.641Z,6.70
2019-06-20T08:50:17.459Z,6.75
2019-06-20T08:52:46.983Z,7.30
2019-06-20T08:55:18.143Z,8.45
2019-06-20T08:57:47.613Z,8.15
2019-06-20T09:00:17.745Z,7.87
2019-06-20T09:02:47.284Z,7.70
2019-06-20T09:05:18.891Z,7.78
2019-06-20T09:07:48.367Z,7.00
2019-06-20T09:10:19.619Z,7.10
2019-06-20T09:12:49.107Z,6.78
2019-06-20T09:15:18.758Z,7.03
2019-06-20T09:17:48.281Z,6.78
2019-06-20T09:20:21.362Z,6.00
2019-06-20T09:22:50.910Z,5.60
2019-06-20T09:25:20.429Z,5.50
2019-06-20T09:27:49.982Z,5.45
2019-06-20T09:30:20.691Z,5.60
2019-06-20T09:32:52.193Z,5.92
2019-06-20T09:35:21.618Z,6.20
2019-06-20T09:37:51.906Z,6.00
2019-06-20T09:40:23.965Z,6.03
2019-06-20T09:42:54.474Z,4.67
2019-06-20T09:45:24.305Z,3.72
2019-06-20T09:47:53.909Z,3.30
2019-06-20T09:50:23.744Z,3.70
2019-06-20T09:52:54.803Z,3.60
2019-06-20T09:55:24.537Z,5.73
2019-06-20T09:57:54.137Z,3.87
2019-06-20T10:00:25.754Z,3.98
2019-06-20T10:02:56.340Z,3.52
2019-06-20T10:05:26.526Z,3.55
2019-06-20T10:07:56.631Z,3.75
2019-06-20T10:10:28.787Z,4.05
2019-06-20T10:12:58.458Z,3.42
2019-06-20T10:15:30.341Z,3.65
2019-06-20T10:18:00.007Z,5.22
2019-06-20T10:20:29.643Z,4.12
2019-06-20T10:22:59.184Z,3.87
2019-06-20T10:25:28.818Z,4.65
2019-06-20T10:27:58.379Z,6.05
2019-06-20T10:30:28.320Z,4.70
2019-06-20T10:32:57.950Z,4.92
2019-06-20T10:35:27.568Z,4.62
2019-06-20T10:37:57.429Z,4.97
2019-06-20T10:40:27.010Z,5.58
2019-06-20T10:42:57.010Z,4.55
2019-06-20T10:45:27.118Z,5.35
2019-06-20T10:47:56.660Z,5.00
2019-06-20T10:50:27.083Z,4.80
2019-06-20T10:52:56.576Z,5.15
2019-06-20T10:55:26.225Z,5.37
2019-06-20T10:57:55.694Z,5.50
2019-06-20T11:00:31.507Z,5.30
2019-06-20T11:02:57.043Z,6.30
2019-06-20T11:05:26.822Z,7.72
2019-06-20T11:07:56.346Z,5.97
2019-06-20T11:10:26.209Z,6.50
2019-06-20T11:12:56.472Z,6.55
2019-06-20T11:15:26.182Z,9.68
2019-06-20T11:17:56.931Z,6.00
2019-06-20T11:20:27.150Z,7.28
2019-06-20T11:22:58.130Z,7.12
2019-06-20T11:25:27.874Z,7.40
2019-06-20T11:27:57.396Z,10.23
2019-06-20T11:30:44.517Z,10.60
2019-06-20T11:33:01.380Z,8.38
2019-06-20T11:35:30.908Z,9.53
2019-06-20T11:38:00.443Z,8.00
2019-06-20T11:40:29.990Z,8.95
2019-06-20T11:42:59.744Z,7.92
2019-06-20T11:45:29.458Z,6.80
2019-06-20T11:47:58.980Z,7.85
2019-06-20T11:50:28.466Z,6.80
2019-06-20T11:52:58.047Z,8.18
2019-06-20T11:55:27.528Z,7.25
2019-06-20T11:57:57.073Z,7.42
2019-06-20T12:00:26.982Z,6.35
2019-06-20T12:02:56.459Z,6.58
2019-06-20T12:05:25.945Z,7.15
2019-06-20T12:07:55.422Z,6.95
2019-06-20T12:10:25.482Z,5.35
2019-06-20T12:12:55.007Z,6.08
2019-06-20T12:15:24.624Z,6.03
2019-06-20T12:17:54.223Z,6.83
2019-06-20T12:20:23.769Z,5.05
2019-06-20T12:22:53.266Z,5.65
2019-06-20T12:25:22.993Z,5.58
2019-06-20T12:27:52.575Z,5.20
2019-06-20T12:30:22.443Z,7.80
2019-06-20T12:32:51.975Z,5.27
2019-06-20T12:35:23.018Z,7.73
2019-06-20T12:37:52.513Z,4.93
2019-06-20T12:40:23.930Z,4.83
2019-06-20T12:42:53.516Z,5.23
2019-06-20T12:45:22.975Z,4.27
2019-06-20T12:47:52.565Z,6.87
2019-06-20T12:50:22.210Z,5.13
2019-06-20T12:52:51.673Z,4.00
2019-06-20T12:55:21.139Z,4.03
2019-06-20T12:57:50.641Z,3.93
2019-06-20T13:00:22.346Z,4.07
2019-06-20T13:02:51.811Z,3.73
2019-06-20T13:05:22.761Z,3.50
2019-06-20T13:07:52.228Z,3.50
2019-06-20T13:10:23.058Z,5.10
2019-06-20T13:12:52.564Z,4.10
2019-06-20T13:15:22.173Z,3.95
2019-06-20T13:17:51.703Z,5.13
2019-06-20T13:20:21.268Z,3.83
2019-06-20T13:22:50.716Z,3.20
2019-06-20T13:25:20.313Z,3.57
2019-06-20T13:27:50.659Z,3.40
2019-06-20T13:30:20.566Z,3.27
2019-06-20T13:32:50.119Z,4.10
2019-06-20T13:35:20.527Z,3.70
2019-06-20T13:37:50.194Z,4.45
2019-06-20T13:40:20.108Z,4.47
2019-06-20T13:42:50.360Z,3.87
2019-06-20T13:45:22.870Z,4.00
2019-06-20T13:47:52.490Z,3.60
2019-06-20T13:50:23.870Z,4.22
2019-06-20T13:52:53.506Z,4.45
2019-06-20T13:55:23.123Z,4.53
2019-06-20T13:57:52.717Z,4.33
2019-06-20T14:00:24.088Z,5.07
2019-06-20T14:02:53.717Z,5.30
2019-06-20T14:05:23.364Z,5.05
2019-06-20T14:07:54.958Z,4.60
2019-06-20T14:10:24.165Z,4.37
2019-06-20T14:12:53.652Z,4.67
2019-06-20T14:15:23.197Z,4.97
2019-06-20T14:17:53.875Z,5.37
2019-06-20T14:20:23.765Z,5.45
2019-06-20T14:22:54.569Z,5.28
2019-06-20T14:25:24.630Z,4.78
2019-06-20T14:27:54.293Z,6.33
2019-06-20T14:30:24.970Z,5.55
2019-06-20T14:32:55.896Z,5.40
2019-06-20T14:35:25.600Z,5.90
2019-06-20T14:37:55.572Z,5.45
2019-06-20T14:40:25.396Z,7.28
2019-06-20T14:42:55.082Z,5.62
2019-06-20T14:45:24.581Z,5.23
2019-06-20T14:47:55.226Z,5.87
2019-06-20T14:50:24.905Z,6.50
2019-06-20T14:52:54.379Z,6.95
2019-06-20T14:55:23.927Z,7.92
2019-06-20T14:57:54.731Z,7.50
2019-06-20T15:00:25.124Z,8.03
2019-06-20T15:02:58.295Z,8.70
2019-06-20T15:05:25.757Z,7.30
2019-06-20T15:07:55.944Z,7.25
2019-06-20T15:10:25.715Z,7.42
2019-06-20T15:12:55.962Z,6.97
2019-06-20T15:15:25.660Z,6.95
2019-06-20T15:17:56.384Z,6.80
2019-06-20T15:20:26.320Z,6.67
2019-06-20T15:22:56.587Z,6.10
2019-06-20T15:25:26.323Z,6.92
2019-06-20T15:27:57.228Z,6.15
2019-06-20T15:30:27.068Z,6.95
2019-06-20T15:33:07.647Z,5.72
2019-06-20T15:35:27.887Z,6.50
2019-06-20T15:37:57.861Z,7.05
2019-06-20T15:40:27.666Z,7.40
2019-06-20T15:42:58.969Z,6.80
2019-06-20T15:45:28.646Z,7.00
2019-06-20T15:47:58.106Z,6.67
2019-06-20T15:50:27.638Z,6.13
2019-06-20T15:52:57.151Z,5.55
2019-06-20T15:55:26.805Z,5.90
2019-06-20T15:57:56.549Z,6.03
2019-06-20T16:00:26.399Z,6.28
2019-06-20T16:03:08.838Z,5.85
2019-06-20T16:05:27.358Z,6.28
2019-06-20T16:07:56.893Z,5.97
2019-06-20T16:10:26.487Z,6.22
2019-06-20T16:12:55.969Z,5.72
2019-06-20T16:15:25.462Z,6.45
2019-06-20T16:17:55.313Z,6.40
2019-06-20T16:20:24.810Z,5.95
2019-06-20T16:22:54.342Z,5.97
2019-06-20T16:25:23.957Z,6.90
2019-06-20T16:27:53.502Z,7.10
2019-06-20T16:30:24.430Z,7.05
2019-06-20T16:32:54.263Z,6.75
2019-06-20T16:35:23.838Z,7.20
2019-06-20T16:37:53.482Z,6.85
2019-06-20T16:40:26.223Z,7.20
2019-06-20T16:42:55.734Z,7.33
2019-06-20T16:45:25.197Z,7.30
2019-06-20T16:47:54.750Z,6.83
2019-06-20T16:50:24.513Z,6.35
2019-06-20T16:52:54.096Z,7.35
2019-06-20T16:55:23.617Z,5.90
2019-06-20T16:57:53.093Z,7.10
2019-06-20T17:00:22.681Z,6.35
2019-06-20T17:02:52.197Z,6.60
2019-06-20T17:05:21.759Z,6.70
2019-06-20T17:07:51.629Z,6.30
2019-06-20T17:10:21.406Z,6.85
2019-06-20T17:12:51.014Z,6.92
2019-06-20T17:15:21.064Z,6.60
2019-06-20T17:17:50.550Z,6.43
2019-06-20T17:20:20.997Z,6.50
2019-06-20T17:22:50.557Z,7.37
2019-06-20T17:25:20.186Z,6.97
2019-06-20T17:27:49.678Z,6.73
2019-06-20T17:30:20.170Z,6.97
2019-06-20T17:32:49.706Z,6.20
2019-06-20T17:35:19.465Z,8.20
2019-06-20T17:37:49.008Z,7.80
2019-06-20T17:40:19.257Z,8.90
2019-06-20T17:42:48.745Z,8.90
2019-06-20T17:45:18.629Z,11.15
2019-06-20T17:47:48.135Z,10.10
2019-06-20T17:50:17.999Z,9.90
2019-06-20T17:52:47.589Z,8.75
2019-06-20T17:55:18.522Z,8.58
2019-06-20T17:57:48.141Z,8.95
2019-06-20T18:00:20.823Z,9.48
2019-06-20T18:02:50.398Z,9.20
2019-06-20T18:05:20.109Z,11.07
2019-06-20T18:07:49.659Z,9.30
2019-06-20T18:10:19.681Z,8.45
2019-06-20T18:12:49.287Z,8.93
2019-06-20T18:15:19.367Z,8.48
2019-06-20T18:17:48.898Z,8.30
2019-06-20T18:20:18.492Z,7.75
2019-06-20T18:22:47.994Z,7.83
2019-06-20T18:25:18.240Z,7.50
2019-06-20T18:27:47.837Z,7.72
2019-06-20T18:30:18.990Z,8.18
2019-06-20T18:32:48.510Z,8.70
2019-06-20T18:35:18.068Z,9.98
2019-06-20T18:37:47.610Z,8.00
2019-06-20T18:40:17.347Z,10.08
2019-06-20T18:42:46.961Z,14.03
2019-06-20T18:45:16.557Z,8.75
2019-06-20T18:47:46.109Z,9.93
2019-06-20T18:50:15.984Z,10.37
2019-06-20T18:52:52.168Z,9.93
2019-06-20T18:55:17.097Z,9.80
2019-06-20T18:57:46.581Z,7.47
2019-06-20T19:00:16.715Z,5.53
2019-06-20T19:02:46.237Z,4.42
2019-06-20T19:05:15.943Z,4.95
2019-06-20T19:07:45.450Z,4.30
2019-06-20T19:10:18.120Z,5.35
2019-06-20T19:12:47.741Z,4.20
2019-06-20T19:15:17.763Z,4.10
2019-06-20T19:17:47.242Z,3.75
2019-06-20T19:20:18.447Z,3.50
2019-06-20T19:22:47.952Z,3.45
2019-06-20T19:25:17.503Z,3.05
2019-06-20T19:27:47.173Z,3.33
2019-06-20T19:30:17.595Z,3.60
2019-06-20T19:32:47.138Z,6.00
2019-06-20T19:35:16.994Z,5.17
2019-06-20T19:37:46.523Z,3.27
2019-06-20T19:40:16.463Z,4.10
2019-06-20T19:42:45.971Z,4.78
2019-06-20T19:45:16.035Z,3.80
2019-06-20T19:47:45.568Z,4.12
2019-06-20T19:50:16.685Z,4.53
2019-06-20T19:52:46.195Z,4.90
2019-06-20T19:55:15.762Z,4.22
2019-06-20T19:57:45.293Z,4.25
2019-06-20T20:00:14.970Z,3.42
2019-06-20T20:02:44.445Z,3.35
2019-06-20T20:05:19.439Z,4.80
2019-06-20T20:07:45.669Z,3.58
2019-06-20T20:10:18.415Z,2.67
2019-06-20T20:12:47.926Z,2.72
2019-06-20T20:15:19.251Z,2.80
2019-06-20T20:17:48.751Z,2.90
2019-06-20T20:20:18.568Z,2.92
2019-06-20T20:22:48.219Z,2.80
2019-06-20T20:25:18.963Z,2.87
2019-06-20T20:27:48.492Z,3.22
2019-06-20T20:30:18.158Z,2.52
2019-06-20T20:32:47.750Z,3.35
2019-06-20T20:35:31.575Z,3.08
2019-06-20T20:37:48.668Z,2.90
2019-06-20T20:40:19.956Z,2.90
2019-06-20T20:42:49.565Z,4.28
2019-06-20T20:45:19.555Z,4.05
2019-06-20T20:47:49.050Z,2.90
2019-06-20T20:50:20.123Z,3.00
2019-06-20T20:52:49.604Z,2.90
2019-06-20T20:55:19.449Z,2.65
2019-06-20T20:57:49.004Z,4.42
2019-06-20T21:00:21.834Z,2.80
2019-06-20T21:02:51.585Z,3.47
2019-06-20T21:05:21.103Z,4.10
2019-06-20T21:07:50.716Z,2.72
2019-06-20T21:10:21.195Z,2.95
2019-06-20T21:12:50.675Z,2.62
2019-06-20T21:15:20.349Z,4.03
2019-06-20T21:17:49.923Z,4.70
2019-06-20T21:20:19.654Z,2.65
2019-06-20T21:22:49.247Z,2.47
2019-06-20T21:25:18.752Z,2.50
2019-06-20T21:27:48.360Z,2.55
2019-06-20T21:30:18.414Z,3.45
2019-06-20T21:32:47.870Z,2.60
2019-06-20T21:35:17.474Z,2.30
2019-06-20T21:37:46.944Z,2.70
2019-06-20T21:40:17.620Z,2.77
2019-06-20T21:42:47.121Z,3.00
2019-06-20T21:45:16.944Z,3.15
2019-06-20T21:47:46.471Z,3.98
2019-06-20T21:50:16.348Z,5.47
2019-06-20T21:52:45.883Z,3.17
2019-06-20T21:55:15.415Z,3.10
2019-06-20T21:57:44.881Z,3.58
2019-06-20T22:00:17.514Z,2.70
2019-06-20T22:02:47.039Z,4.00
2019-06-20T22:05:16.793Z,3.90
2019-06-20T22:07:46.335Z,15.35
2019-06-20T22:10:15.952Z,3.00
2019-06-20T22:12:45.533Z,3.33
2019-06-20T22:15:15.200Z,5.12
2019-06-20T22:17:44.707Z,3.77
2019-06-20T22:20:14.757Z,3.98
2019-06-20T22:22:44.319Z,4.25
2019-06-20T22:25:14.201Z,5.50
2019-06-20T22:27:43.730Z,4.50
2019-06-20T22:30:13.933Z,4.05
2019-06-20T22:32:43.439Z,4.05
2019-06-20T22:35:13.310Z,4.05
2019-06-20T22:37:42.856Z,5.47
2019-06-20T22:40:12.401Z,3.87
2019-06-20T22:42:41.973Z,6.10
2019-06-20T22:45:13.004Z,4.37
2019-06-20T22:47:42.508Z,4.10
2019-06-20T22:50:12.267Z,4.30
2019-06-20T22:52:41.908Z,5.00
2019-06-20T22:55:11.501Z,4.55
2019-06-20T22:57:41.030Z,4.90
2019-06-20T23:00:11.003Z,4.10
2019-06-20T23:02:40.469Z,4.15
2019-06-20T23:05:10.501Z,4.20
2019-06-20T23:07:40.227Z,4.60
2019-06-20T23:10:11.448Z,4.60
2019-06-20T23:12:41.204Z,4.95
2019-06-20T23:15:11.009Z,6.00
2019-06-20T23:17:40.511Z,5.15
2019-06-20T23:20:10.364Z,5.25
2019-06-20T23:22:39.933Z,4.20
2019-06-20T23:25:09.625Z,5.05
2019-06-20T23:27:39.278Z,4.92
2019-06-20T23:30:09.966Z,4.62
2019-06-20T23:32:39.489Z,5.10
2019-06-20T23:35:10.514Z,6.17
2019-06-20T23:37:40.010Z,4.70
2019-06-20T23:40:11.145Z,4.77
2019-06-20T23:42:40.634Z,4.40
2019-06-20T23:45:11.645Z,7.00
2019-06-20T23:47:41.136Z,4.42
2019-06-20T23:50:12.541Z,4.70
2019-06-20T23:52:43.688Z,4.80
2019-06-20T23:55:13.376Z,4.80
2019-06-20T23:57:42.841Z,5.10
